sensor_id;sensor_type;location;lat;lon;timestamp;P1;durP1;ratioP1;P2;durP2;ratioP2
4812;SDS011;2420;51.202;8.698;2022-12-29T00:00:06;8.00;;;5.03;;
4812;SDS011;2420;51.202;8.698;2022-12-29T00:02:32;7.22;;;4.82;;
4812;SDS011;2420;51.202;8.698;2022-12-29T00:04:58;8.48;;;4.85;;
4812;SDS011;2420;51.202;8.698;2022-12-29T00:07:23;9.63;;;4.63;;
4812;SDS011;2420;51.202;8.698;2022-12-29T00:09:49;7.03;;;4.47;;
4812;SDS011;2420;51.202;8.698;2022-12-29T00:12:14;7.13;;;4.80;;
4812;SDS011;2420;51.202;8.698;2022-12-29T00:14:40;8.68;;;5.13;;
4812;SDS011;2420;51.202;8.698;2022-12-29T00:17:24;8.85;;;4.95;;
4812;SDS011;2420;51.202;8.698;2022-12-29T00:19:49;8.93;;;5.18;;
4812;SDS011;2420;51.202;8.698;2022-12-29T00:22:34;6.85;;;4.40;;
4812;SDS011;2420;51.202;8.698;2022-12-29T00:25:18;6.60;;;4.20;;
4812;SDS011;2420;51.202;8.698;2022-12-29T00:28:02;7.07;;;4.72;;
4812;SDS011;2420;51.202;8.698;2022-12-29T00:30:48;6.45;;;4.55;;
4812;SDS011;2420;51.202;8.698;2022-12-29T00:33:32;5.50;;;3.75;;
4812;SDS011;2420;51.202;8.698;2022-12-29T00:36:25;6.07;;;4.38;;
4812;SDS011;2420;51.202;8.698;2022-12-29T00:39:10;6.90;;;4.60;;
4812;SDS011;2420;51.202;8.698;2022-12-29T00:42:02;7.28;;;4.45;;
4812;SDS011;2420;51.202;8.698;2022-12-29T00:45:04;6.63;;;4.68;;
4812;SDS011;2420;51.202;8.698;2022-12-29T00:47:30;6.43;;;4.05;;
4812;SDS011;2420;51.202;8.698;2022-12-29T00:49:56;7.65;;;4.70;;
4812;SDS011;2420;51.202;8.698;2022-12-29T00:52:21;4.63;;;3.60;;
4812;SDS011;2420;51.202;8.698;2022-12-29T00:54:47;6.82;;;4.47;;
4812;SDS011;2420;51.202;8.698;2022-12-29T00:57:12;6.90;;;4.40;;
4812;SDS011;2420;51.202;8.698;2022-12-29T00:59:38;6.72;;;4.45;;
4812;SDS011;2420;51.202;8.698;2022-12-29T01:02:05;6.22;;;4.30;;
4812;SDS011;2420;51.202;8.698;2022-12-29T01:04:31;8.18;;;4.75;;
4812;SDS011;2420;51.202;8.698;2022-12-29T01:06:58;7.30;;;4.32;;
4812;SDS011;2420;51.202;8.698;2022-12-29T01:09:23;7.05;;;4.40;;
4812;SDS011;2420;51.202;8.698;2022-12-29T01:12:08;5.28;;;3.67;;
4812;SDS011;2420;51.202;8.698;2022-12-29T01:14:35;5.78;;;4.13;;
4812;SDS011;2420;51.202;8.698;2022-12-29T01:17:01;4.90;;;3.75;;
4812;SDS011;2420;51.202;8.698;2022-12-29T01:19:27;5.55;;;3.63;;
4812;SDS011;2420;51.202;8.698;2022-12-29T01:21:52;6.40;;;3.45;;
4812;SDS011;2420;51.202;8.698;2022-12-29T01:24:19;6.82;;;3.80;;
4812;SDS011;2420;51.202;8.698;2022-12-29T01:26:45;6.97;;;4.03;;
4812;SDS011;2420;51.202;8.698;2022-12-29T01:29:11;5.53;;;3.08;;
4812;SDS011;2420;51.202;8.698;2022-12-29T01:31:37;3.90;;;3.00;;
4812;SDS011;2420;51.202;8.698;2022-12-29T01:34:02;6.03;;;3.83;;
4812;SDS011;2420;51.202;8.698;2022-12-29T01:36:28;5.57;;;2.95;;
4812;SDS011;2420;51.202;8.698;2022-12-29T01:38:54;3.92;;;2.90;;
4812;SDS011;2420;51.202;8.698;2022-12-29T01:41:20;3.95;;;3.03;;
4812;SDS011;2420;51.202;8.698;2022-12-29T01:43:47;6.47;;;2.85;;
4812;SDS011;2420;51.202;8.698;2022-12-29T01:46:28;4.63;;;2.90;;
4812;SDS011;2420;51.202;8.698;2022-12-29T01:49:13;3.85;;;2.65;;
4812;SDS011;2420;51.202;8.698;2022-12-29T01:54:19;2.92;;;2.30;;
4812;SDS011;2420;51.202;8.698;2022-12-29T01:56:51;4.03;;;2.40;;
4812;SDS011;2420;51.202;8.698;2022-12-29T01:59:19;5.35;;;2.15;;
4812;SDS011;2420;51.202;8.698;2022-12-29T02:01:50;3.40;;;2.35;;
4812;SDS011;2420;51.202;8.698;2022-12-29T02:04:16;3.13;;;2.10;;
4812;SDS011;2420;51.202;8.698;2022-12-29T02:06:49;2.85;;;2.00;;
4812;SDS011;2420;51.202;8.698;2022-12-29T02:09:18;2.85;;;1.90;;
4812;SDS011;2420;51.202;8.698;2022-12-29T02:11:44;2.03;;;1.50;;
4812;SDS011;2420;51.202;8.698;2022-12-29T02:14:12;2.65;;;1.70;;
4812;SDS011;2420;51.202;8.698;2022-12-29T02:16:56;1.98;;;1.50;;
4812;SDS011;2420;51.202;8.698;2022-12-29T02:22:27;3.33;;;1.90;;
4812;SDS011;2420;51.202;8.698;2022-12-29T02:39:07;1.52;;;1.40;;
4812;SDS011;2420;51.202;8.698;2022-12-29T02:53:02;1.30;;;1.20;;
4812;SDS011;2420;51.202;8.698;2022-12-29T02:55:31;1.25;;;1.10;;
4812;SDS011;2420;51.202;8.698;2022-12-29T02:58:17;1.20;;;1.10;;
4812;SDS011;2420;51.202;8.698;2022-12-29T03:00:48;1.20;;;1.10;;
4812;SDS011;2420;51.202;8.698;2022-12-29T03:03:36;1.45;;;1.35;;
4812;SDS011;2420;51.202;8.698;2022-12-29T03:06:25;1.25;;;1.05;;
4812;SDS011;2420;51.202;8.698;2022-12-29T03:11:56;2.90;;;1.17;;
4812;SDS011;2420;51.202;8.698;2022-12-29T03:14:37;2.15;;;1.25;;
4812;SDS011;2420;51.202;8.698;2022-12-29T03:20:26;1.33;;;1.10;;
4812;SDS011;2420;51.202;8.698;2022-12-29T03:23:08;1.90;;;1.10;;
4812;SDS011;2420;51.202;8.698;2022-12-29T03:25:36;1.13;;;1.02;;
4812;SDS011;2420;51.202;8.698;2022-12-29T03:28:07;1.88;;;1.13;;
4812;SDS011;2420;51.202;8.698;2022-12-29T03:30:36;2.22;;;1.08;;
4812;SDS011;2420;51.202;8.698;2022-12-29T03:33:04;2.53;;;1.10;;
4812;SDS011;2420;51.202;8.698;2022-12-29T03:35:33;1.40;;;1.00;;
4812;SDS011;2420;51.202;8.698;2022-12-29T03:40:50;2.03;;;1.20;;
4812;SDS011;2420;51.202;8.698;2022-12-29T03:43:19;1.73;;;1.40;;
4812;SDS011;2420;51.202;8.698;2022-12-29T03:45:45;1.38;;;1.15;;
4812;SDS011;2420;51.202;8.698;2022-12-29T03:48:10;1.73;;;1.30;;
4812;SDS011;2420;51.202;8.698;2022-12-29T03:50:36;1.52;;;1.30;;
4812;SDS011;2420;51.202;8.698;2022-12-29T03:53:01;1.70;;;1.52;;
4812;SDS011;2420;51.202;8.698;2022-12-29T03:55:27;1.58;;;1.38;;
4812;SDS011;2420;51.202;8.698;2022-12-29T03:57:52;1.38;;;1.27;;
4812;SDS011;2420;51.202;8.698;2022-12-29T04:00:18;1.80;;;1.50;;
4812;SDS011;2420;51.202;8.698;2022-12-29T04:02:43;2.70;;;1.50;;
4812;SDS011;2420;51.202;8.698;2022-12-29T04:05:09;1.30;;;1.20;;
4812;SDS011;2420;51.202;8.698;2022-12-29T04:07:34;2.17;;;1.40;;
4812;SDS011;2420;51.202;8.698;2022-12-29T04:10:00;1.85;;;1.35;;
4812;SDS011;2420;51.202;8.698;2022-12-29T04:12:26;1.60;;;1.30;;
4812;SDS011;2420;51.202;8.698;2022-12-29T04:14:51;1.55;;;1.45;;
4812;SDS011;2420;51.202;8.698;2022-12-29T04:17:17;2.40;;;1.52;;
4812;SDS011;2420;51.202;8.698;2022-12-29T04:19:42;2.13;;;1.50;;
4812;SDS011;2420;51.202;8.698;2022-12-29T04:22:08;1.60;;;1.30;;
4812;SDS011;2420;51.202;8.698;2022-12-29T04:24:33;2.50;;;1.35;;
4812;SDS011;2420;51.202;8.698;2022-12-29T04:26:59;1.58;;;1.33;;
4812;SDS011;2420;51.202;8.698;2022-12-29T04:29:24;1.75;;;1.30;;
4812;SDS011;2420;51.202;8.698;2022-12-29T04:31:50;1.73;;;1.23;;
4812;SDS011;2420;51.202;8.698;2022-12-29T04:34:15;2.28;;;1.38;;
4812;SDS011;2420;51.202;8.698;2022-12-29T04:36:41;1.60;;;1.40;;
4812;SDS011;2420;51.202;8.698;2022-12-29T04:39:07;2.53;;;1.50;;
4812;SDS011;2420;51.202;8.698;2022-12-29T04:41:32;2.15;;;1.40;;
4812;SDS011;2420;51.202;8.698;2022-12-29T04:43:58;1.40;;;1.30;;
4812;SDS011;2420;51.202;8.698;2022-12-29T04:46:23;1.60;;;1.30;;
4812;SDS011;2420;51.202;8.698;2022-12-29T04:48:49;1.55;;;1.40;;
4812;SDS011;2420;51.202;8.698;2022-12-29T04:51:14;1.65;;;1.40;;
4812;SDS011;2420;51.202;8.698;2022-12-29T04:53:40;1.88;;;1.23;;
4812;SDS011;2420;51.202;8.698;2022-12-29T04:56:06;2.03;;;1.35;;
4812;SDS011;2420;51.202;8.698;2022-12-29T04:58:32;1.48;;;1.30;;
4812;SDS011;2420;51.202;8.698;2022-12-29T05:00:58;1.50;;;1.40;;
4812;SDS011;2420;51.202;8.698;2022-12-29T05:03:23;1.42;;;1.30;;
4812;SDS011;2420;51.202;8.698;2022-12-29T05:05:49;1.33;;;1.23;;
4812;SDS011;2420;51.202;8.698;2022-12-29T05:08:18;1.27;;;1.10;;
4812;SDS011;2420;51.202;8.698;2022-12-29T05:10:44;1.52;;;1.23;;
4812;SDS011;2420;51.202;8.698;2022-12-29T05:13:10;1.20;;;1.10;;
4812;SDS011;2420;51.202;8.698;2022-12-29T05:15:36;1.33;;;1.13;;
4812;SDS011;2420;51.202;8.698;2022-12-29T05:18:01;1.70;;;1.10;;
4812;SDS011;2420;51.202;8.698;2022-12-29T05:20:27;1.23;;;1.10;;
4812;SDS011;2420;51.202;8.698;2022-12-29T05:22:52;1.38;;;1.00;;
4812;SDS011;2420;51.202;8.698;2022-12-29T05:25:18;1.35;;;0.93;;
4812;SDS011;2420;51.202;8.698;2022-12-29T05:27:43;1.20;;;0.90;;
4812;SDS011;2420;51.202;8.698;2022-12-29T05:30:09;1.13;;;0.98;;
4812;SDS011;2420;51.202;8.698;2022-12-29T05:32:35;1.17;;;0.93;;
4812;SDS011;2420;51.202;8.698;2022-12-29T05:35:01;1.35;;;1.15;;
4812;SDS011;2420;51.202;8.698;2022-12-29T05:37:26;1.08;;;0.98;;
4812;SDS011;2420;51.202;8.698;2022-12-29T05:39:52;1.50;;;1.15;;
4812;SDS011;2420;51.202;8.698;2022-12-29T05:42:17;1.20;;;1.08;;
4812;SDS011;2420;51.202;8.698;2022-12-29T05:44:43;1.77;;;1.20;;
4812;SDS011;2420;51.202;8.698;2022-12-29T05:47:08;1.27;;;1.10;;
4812;SDS011;2420;51.202;8.698;2022-12-29T05:49:34;1.10;;;0.90;;
4812;SDS011;2420;51.202;8.698;2022-12-29T05:51:59;1.20;;;1.00;;
4812;SDS011;2420;51.202;8.698;2022-12-29T05:54:25;1.10;;;1.00;;
4812;SDS011;2420;51.202;8.698;2022-12-29T05:56:50;2.28;;;1.45;;
4812;SDS011;2420;51.202;8.698;2022-12-29T05:59:16;1.10;;;0.90;;
4812;SDS011;2420;51.202;8.698;2022-12-29T06:01:41;1.45;;;1.13;;
4812;SDS011;2420;51.202;8.698;2022-12-29T06:04:07;1.27;;;1.00;;
4812;SDS011;2420;51.202;8.698;2022-12-29T06:06:32;2.05;;;1.10;;
4812;SDS011;2420;51.202;8.698;2022-12-29T06:08:58;1.20;;;1.08;;
4812;SDS011;2420;51.202;8.698;2022-12-29T06:11:24;1.70;;;1.15;;
4812;SDS011;2420;51.202;8.698;2022-12-29T06:13:49;1.35;;;1.00;;
4812;SDS011;2420;51.202;8.698;2022-12-29T06:16:14;2.05;;;1.13;;
4812;SDS011;2420;51.202;8.698;2022-12-29T06:18:40;1.15;;;1.02;;
4812;SDS011;2420;51.202;8.698;2022-12-29T06:21:06;1.20;;;1.00;;
4812;SDS011;2420;51.202;8.698;2022-12-29T06:23:31;1.27;;;1.00;;
4812;SDS011;2420;51.202;8.698;2022-12-29T06:25:57;1.48;;;1.00;;
4812;SDS011;2420;51.202;8.698;2022-12-29T06:28:23;1.13;;;1.00;;
4812;SDS011;2420;51.202;8.698;2022-12-29T06:30:48;1.13;;;0.93;;
4812;SDS011;2420;51.202;8.698;2022-12-29T06:33:14;1.25;;;1.00;;
4812;SDS011;2420;51.202;8.698;2022-12-29T06:35:41;1.00;;;0.80;;
4812;SDS011;2420;51.202;8.698;2022-12-29T06:38:07;0.90;;;0.90;;
4812;SDS011;2420;51.202;8.698;2022-12-29T06:40:33;0.98;;;0.80;;
4812;SDS011;2420;51.202;8.698;2022-12-29T06:42:58;1.67;;;0.90;;
4812;SDS011;2420;51.202;8.698;2022-12-29T06:45:24;1.00;;;0.90;;
4812;SDS011;2420;51.202;8.698;2022-12-29T06:47:49;1.27;;;1.00;;
4812;SDS011;2420;51.202;8.698;2022-12-29T06:50:15;1.75;;;1.00;;
4812;SDS011;2420;51.202;8.698;2022-12-29T06:52:40;1.55;;;1.10;;
4812;SDS011;2420;51.202;8.698;2022-12-29T06:55:06;1.67;;;1.00;;
4812;SDS011;2420;51.202;8.698;2022-12-29T06:57:32;0.82;;;0.82;;
4812;SDS011;2420;51.202;8.698;2022-12-29T06:59:57;1.20;;;1.02;;
4812;SDS011;2420;51.202;8.698;2022-12-29T07:02:23;1.13;;;0.93;;
4812;SDS011;2420;51.202;8.698;2022-12-29T07:04:50;1.10;;;1.00;;
4812;SDS011;2420;51.202;8.698;2022-12-29T07:07:17;2.40;;;1.30;;
4812;SDS011;2420;51.202;8.698;2022-12-29T07:09:43;1.33;;;1.10;;
4812;SDS011;2420;51.202;8.698;2022-12-29T07:12:09;1.20;;;1.10;;
4812;SDS011;2420;51.202;8.698;2022-12-29T07:14:34;1.55;;;1.27;;
4812;SDS011;2420;51.202;8.698;2022-12-29T07:17:01;1.27;;;1.13;;
4812;SDS011;2420;51.202;8.698;2022-12-29T07:19:27;1.52;;;1.08;;
4812;SDS011;2420;51.202;8.698;2022-12-29T07:21:54;2.17;;;1.13;;
4812;SDS011;2420;51.202;8.698;2022-12-29T07:24:19;1.70;;;1.23;;
4812;SDS011;2420;51.202;8.698;2022-12-29T07:26:45;1.35;;;1.10;;
4812;SDS011;2420;51.202;8.698;2022-12-29T07:29:10;1.45;;;1.27;;
4812;SDS011;2420;51.202;8.698;2022-12-29T07:31:36;1.30;;;1.20;;
4812;SDS011;2420;51.202;8.698;2022-12-29T07:34:01;2.35;;;1.30;;
4812;SDS011;2420;51.202;8.698;2022-12-29T07:36:27;2.25;;;1.30;;
4812;SDS011;2420;51.202;8.698;2022-12-29T07:38:53;1.20;;;1.10;;
4812;SDS011;2420;51.202;8.698;2022-12-29T07:41:18;5.47;;;2.42;;
4812;SDS011;2420;51.202;8.698;2022-12-29T07:43:46;2.13;;;1.60;;
4812;SDS011;2420;51.202;8.698;2022-12-29T07:46:13;5.85;;;3.67;;
4812;SDS011;2420;51.202;8.698;2022-12-29T07:48:38;3.30;;;2.30;;
4812;SDS011;2420;51.202;8.698;2022-12-29T07:51:04;1.85;;;0.90;;
4812;SDS011;2420;51.202;8.698;2022-12-29T07:53:29;1.05;;;0.90;;
4812;SDS011;2420;51.202;8.698;2022-12-29T07:55:55;1.45;;;0.70;;
4812;SDS011;2420;51.202;8.698;2022-12-29T07:58:21;0.70;;;0.70;;
4812;SDS011;2420;51.202;8.698;2022-12-29T08:00:46;2.00;;;0.90;;
4812;SDS011;2420;51.202;8.698;2022-12-29T08:03:12;0.55;;;0.50;;
4812;SDS011;2420;51.202;8.698;2022-12-29T08:05:37;0.85;;;0.60;;
4812;SDS011;2420;51.202;8.698;2022-12-29T08:08:03;1.52;;;0.60;;
4812;SDS011;2420;51.202;8.698;2022-12-29T08:10:29;0.60;;;0.60;;
4812;SDS011;2420;51.202;8.698;2022-12-29T08:12:54;1.00;;;0.80;;
4812;SDS011;2420;51.202;8.698;2022-12-29T08:15:20;3.72;;;0.82;;
4812;SDS011;2420;51.202;8.698;2022-12-29T08:17:45;1.10;;;0.90;;
4812;SDS011;2420;51.202;8.698;2022-12-29T08:20:11;0.60;;;0.60;;
4812;SDS011;2420;51.202;8.698;2022-12-29T08:22:36;0.70;;;0.70;;
4812;SDS011;2420;51.202;8.698;2022-12-29T08:25:02;1.92;;;0.90;;
4812;SDS011;2420;51.202;8.698;2022-12-29T08:27:28;0.70;;;0.70;;
4812;SDS011;2420;51.202;8.698;2022-12-29T08:29:53;1.85;;;0.88;;
4812;SDS011;2420;51.202;8.698;2022-12-29T08:32:19;0.60;;;0.60;;
4812;SDS011;2420;51.202;8.698;2022-12-29T08:34:44;1.73;;;0.90;;
4812;SDS011;2420;51.202;8.698;2022-12-29T08:37:10;1.40;;;1.00;;
4812;SDS011;2420;51.202;8.698;2022-12-29T08:39:36;1.40;;;0.95;;
4812;SDS011;2420;51.202;8.698;2022-12-29T08:42:01;1.23;;;0.90;;
4812;SDS011;2420;51.202;8.698;2022-12-29T08:44:27;1.23;;;0.80;;
4812;SDS011;2420;51.202;8.698;2022-12-29T08:46:52;0.80;;;0.80;;
4812;SDS011;2420;51.202;8.698;2022-12-29T08:49:18;0.88;;;0.80;;
4812;SDS011;2420;51.202;8.698;2022-12-29T08:51:43;2.03;;;0.90;;
4812;SDS011;2420;51.202;8.698;2022-12-29T08:54:09;0.70;;;0.70;;
4812;SDS011;2420;51.202;8.698;2022-12-29T08:56:34;6.10;;;0.80;;
4812;SDS011;2420;51.202;8.698;2022-12-29T08:59:00;2.80;;;2.20;;
4812;SDS011;2420;51.202;8.698;2022-12-29T09:01:26;1.73;;;1.00;;
4812;SDS011;2420;51.202;8.698;2022-12-29T09:03:52;1.38;;;0.85;;
4812;SDS011;2420;51.202;8.698;2022-12-29T09:06:19;1.20;;;0.90;;
4812;SDS011;2420;51.202;8.698;2022-12-29T09:08:44;1.70;;;1.00;;
4812;SDS011;2420;51.202;8.698;2022-12-29T09:11:12;1.75;;;0.93;;
4812;SDS011;2420;51.202;8.698;2022-12-29T09:13:39;3.00;;;0.90;;
4812;SDS011;2420;51.202;8.698;2022-12-29T09:16:05;1.90;;;0.82;;
4812;SDS011;2420;51.202;8.698;2022-12-29T09:18:31;1.05;;;0.90;;
4812;SDS011;2420;51.202;8.698;2022-12-29T09:21:00;1.27;;;0.90;;
4812;SDS011;2420;51.202;8.698;2022-12-29T09:23:27;1.85;;;0.80;;
4812;SDS011;2420;51.202;8.698;2022-12-29T09:25:54;2.97;;;0.90;;
4812;SDS011;2420;51.202;8.698;2022-12-29T09:28:20;1.83;;;1.20;;
4812;SDS011;2420;51.202;8.698;2022-12-29T09:30:46;1.55;;;1.10;;
4812;SDS011;2420;51.202;8.698;2022-12-29T09:33:11;1.88;;;1.00;;
4812;SDS011;2420;51.202;8.698;2022-12-29T09:35:40;1.92;;;0.95;;
4812;SDS011;2420;51.202;8.698;2022-12-29T09:38:07;1.52;;;1.00;;
4812;SDS011;2420;51.202;8.698;2022-12-29T09:40:33;4.05;;;2.45;;
4812;SDS011;2420;51.202;8.698;2022-12-29T09:48:39;1.75;;;1.13;;
4812;SDS011;2420;51.202;8.698;2022-12-29T09:51:17;2.15;;;1.17;;
4812;SDS011;2420;51.202;8.698;2022-12-29T09:53:53;2.35;;;1.20;;
4812;SDS011;2420;51.202;8.698;2022-12-29T09:56:23;1.30;;;1.05;;
4812;SDS011;2420;51.202;8.698;2022-12-29T09:58:57;3.45;;;0.98;;
4812;SDS011;2420;51.202;8.698;2022-12-29T10:04:29;1.60;;;0.80;;
4812;SDS011;2420;51.202;8.698;2022-12-29T10:07:02;4.20;;;1.10;;
4812;SDS011;2420;51.202;8.698;2022-12-29T10:21:13;0.77;;;0.73;;
4812;SDS011;2420;51.202;8.698;2022-12-29T10:23:50;3.28;;;1.10;;
4812;SDS011;2420;51.202;8.698;2022-12-29T10:26:18;1.10;;;1.00;;
4812;SDS011;2420;51.202;8.698;2022-12-29T10:28:53;2.33;;;0.93;;
4812;SDS011;2420;51.202;8.698;2022-12-29T10:31:44;2.47;;;1.13;;
4812;SDS011;2420;51.202;8.698;2022-12-29T10:34:27;3.70;;;1.00;;
4812;SDS011;2420;51.202;8.698;2022-12-29T10:39:31;4.65;;;2.80;;
4812;SDS011;2420;51.202;8.698;2022-12-29T10:42:13;3.50;;;1.75;;
4812;SDS011;2420;51.202;8.698;2022-12-29T10:44:45;6.13;;;2.00;;
4812;SDS011;2420;51.202;8.698;2022-12-29T10:47:15;3.75;;;1.30;;
4812;SDS011;2420;51.202;8.698;2022-12-29T10:49:48;3.17;;;1.42;;
4812;SDS011;2420;51.202;8.698;2022-12-29T10:52:15;3.42;;;1.33;;
4812;SDS011;2420;51.202;8.698;2022-12-29T10:54:52;2.55;;;1.40;;
4812;SDS011;2420;51.202;8.698;2022-12-29T10:57:36;2.17;;;1.20;;
4812;SDS011;2420;51.202;8.698;2022-12-29T11:00:12;3.42;;;1.50;;
4812;SDS011;2420;51.202;8.698;2022-12-29T11:05:35;6.45;;;1.40;;
4812;SDS011;2420;51.202;8.698;2022-12-29T11:08:11;3.42;;;1.33;;
4812;SDS011;2420;51.202;8.698;2022-12-29T11:10:41;2.75;;;1.30;;
4812;SDS011;2420;51.202;8.698;2022-12-29T11:13:16;1.27;;;1.00;;
4812;SDS011;2420;51.202;8.698;2022-12-29T11:15:50;2.72;;;1.42;;
4812;SDS011;2420;51.202;8.698;2022-12-29T11:20:46;3.58;;;1.10;;
4812;SDS011;2420;51.202;8.698;2022-12-29T11:26:05;2.50;;;1.33;;
4812;SDS011;2420;51.202;8.698;2022-12-29T11:28:32;3.92;;;1.40;;
4812;SDS011;2420;51.202;8.698;2022-12-29T11:31:01;5.40;;;1.80;;
4812;SDS011;2420;51.202;8.698;2022-12-29T11:33:29;5.47;;;2.30;;
4812;SDS011;2420;51.202;8.698;2022-12-29T11:35:58;4.13;;;1.75;;
4812;SDS011;2420;51.202;8.698;2022-12-29T11:38:41;5.32;;;1.60;;
4812;SDS011;2420;51.202;8.698;2022-12-29T11:41:12;3.83;;;1.38;;
4812;SDS011;2420;51.202;8.698;2022-12-29T11:43:43;2.60;;;1.10;;
4812;SDS011;2420;51.202;8.698;2022-12-29T11:46:20;2.42;;;1.38;;
4812;SDS011;2420;51.202;8.698;2022-12-29T11:48:49;4.20;;;1.00;;
4812;SDS011;2420;51.202;8.698;2022-12-29T11:51:22;4.18;;;1.60;;
4812;SDS011;2420;51.202;8.698;2022-12-29T11:53:54;3.25;;;1.58;;
4812;SDS011;2420;51.202;8.698;2022-12-29T11:56:36;6.78;;;2.00;;
4812;SDS011;2420;51.202;8.698;2022-12-29T12:01:51;1.65;;;1.30;;
4812;SDS011;2420;51.202;8.698;2022-12-29T12:04:18;5.20;;;1.48;;
4812;SDS011;2420;51.202;8.698;2022-12-29T12:09:32;4.38;;;1.58;;
4812;SDS011;2420;51.202;8.698;2022-12-29T12:12:03;3.33;;;1.50;;
4812;SDS011;2420;51.202;8.698;2022-12-29T12:14:38;3.95;;;1.60;;
4812;SDS011;2420;51.202;8.698;2022-12-29T12:17:15;3.90;;;1.60;;
4812;SDS011;2420;51.202;8.698;2022-12-29T12:19:46;3.55;;;1.60;;
4812;SDS011;2420;51.202;8.698;2022-12-29T12:22:16;8.40;;;2.47;;
4812;SDS011;2420;51.202;8.698;2022-12-29T12:24:48;6.03;;;1.98;;
4812;SDS011;2420;51.202;8.698;2022-12-29T12:27:29;6.38;;;2.13;;
4812;SDS011;2420;51.202;8.698;2022-12-29T12:30:14;3.50;;;1.80;;
4812;SDS011;2420;51.202;8.698;2022-12-29T12:38:08;2.50;;;1.63;;
4812;SDS011;2420;51.202;8.698;2022-12-29T12:40:58;4.65;;;2.70;;
4812;SDS011;2420;51.202;8.698;2022-12-29T12:44:00;3.95;;;2.03;;
4812;SDS011;2420;51.202;8.698;2022-12-29T12:49:52;4.43;;;2.30;;
4812;SDS011;2420;51.202;8.698;2022-12-29T12:55:28;4.00;;;1.63;;
4812;SDS011;2420;51.202;8.698;2022-12-29T13:01:10;3.20;;;1.40;;
4812;SDS011;2420;51.202;8.698;2022-12-29T13:06:48;3.03;;;1.15;;
4812;SDS011;2420;51.202;8.698;2022-12-29T13:09:46;3.65;;;1.38;;
4812;SDS011;2420;51.202;8.698;2022-12-29T13:15:09;5.55;;;1.50;;
4812;SDS011;2420;51.202;8.698;2022-12-29T13:18:00;9.05;;;3.05;;
4812;SDS011;2420;51.202;8.698;2022-12-29T13:20:47;4.30;;;2.05;;
4812;SDS011;2420;51.202;8.698;2022-12-29T13:29:11;2.22;;;1.60;;
4812;SDS011;2420;51.202;8.698;2022-12-29T13:31:56;3.72;;;1.70;;
4812;SDS011;2420;51.202;8.698;2022-12-29T13:37:11;2.67;;;1.40;;
4812;SDS011;2420;51.202;8.698;2022-12-29T13:39:42;7.20;;;1.63;;
4812;SDS011;2420;51.202;8.698;2022-12-29T13:42:20;3.55;;;1.80;;
4812;SDS011;2420;51.202;8.698;2022-12-29T13:44:58;5.40;;;1.80;;
4812;SDS011;2420;51.202;8.698;2022-12-29T13:47:27;3.80;;;1.90;;
4812;SDS011;2420;51.202;8.698;2022-12-29T13:49:53;4.50;;;1.60;;
4812;SDS011;2420;51.202;8.698;2022-12-29T13:52:28;5.80;;;1.60;;
4812;SDS011;2420;51.202;8.698;2022-12-29T13:55:07;5.78;;;1.90;;
4812;SDS011;2420;51.202;8.698;2022-12-29T13:57:48;4.38;;;1.50;;
4812;SDS011;2420;51.202;8.698;2022-12-29T14:00:27;6.38;;;1.40;;
4812;SDS011;2420;51.202;8.698;2022-12-29T14:03:02;6.82;;;2.20;;
4812;SDS011;2420;51.202;8.698;2022-12-29T14:06:02;5.50;;;1.90;;
4812;SDS011;2420;51.202;8.698;2022-12-29T14:08:35;5.15;;;2.30;;
4812;SDS011;2420;51.202;8.698;2022-12-29T14:11:05;3.05;;;1.88;;
4812;SDS011;2420;51.202;8.698;2022-12-29T14:13:40;3.85;;;2.05;;
4812;SDS011;2420;51.202;8.698;2022-12-29T14:16:09;4.78;;;2.28;;
4812;SDS011;2420;51.202;8.698;2022-12-29T14:18:51;9.07;;;2.78;;
4812;SDS011;2420;51.202;8.698;2022-12-29T14:21:20;5.93;;;1.80;;
4812;SDS011;2420;51.202;8.698;2022-12-29T14:23:49;3.50;;;1.70;;
4812;SDS011;2420;51.202;8.698;2022-12-29T14:26:17;4.60;;;1.60;;
4812;SDS011;2420;51.202;8.698;2022-12-29T14:28:44;3.60;;;2.00;;
4812;SDS011;2420;51.202;8.698;2022-12-29T14:33:40;5.78;;;2.40;;
4812;SDS011;2420;51.202;8.698;2022-12-29T14:36:26;5.60;;;2.28;;
4812;SDS011;2420;51.202;8.698;2022-12-29T14:38:59;3.22;;;1.60;;
4812;SDS011;2420;51.202;8.698;2022-12-29T14:41:35;4.30;;;1.90;;
4812;SDS011;2420;51.202;8.698;2022-12-29T14:44:15;5.40;;;1.40;;
4812;SDS011;2420;51.202;8.698;2022-12-29T14:49:19;4.30;;;1.48;;
4812;SDS011;2420;51.202;8.698;2022-12-29T14:51:48;6.32;;;2.20;;
4812;SDS011;2420;51.202;8.698;2022-12-29T14:56:58;4.65;;;1.50;;
4812;SDS011;2420;51.202;8.698;2022-12-29T14:59:27;5.55;;;2.00;;
4812;SDS011;2420;51.202;8.698;2022-12-29T15:01:54;3.65;;;1.85;;
4812;SDS011;2420;51.202;8.698;2022-12-29T15:04:22;3.47;;;2.05;;
4812;SDS011;2420;51.202;8.698;2022-12-29T15:06:56;6.45;;;1.90;;
4812;SDS011;2420;51.202;8.698;2022-12-29T15:09:31;6.75;;;1.55;;
4812;SDS011;2420;51.202;8.698;2022-12-29T15:12:04;3.03;;;1.52;;
4812;SDS011;2420;51.202;8.698;2022-12-29T15:14:54;4.82;;;1.45;;
4812;SDS011;2420;51.202;8.698;2022-12-29T15:17:30;2.75;;;1.20;;
4812;SDS011;2420;51.202;8.698;2022-12-29T15:19:58;4.20;;;1.38;;
4812;SDS011;2420;51.202;8.698;2022-12-29T15:22:55;6.38;;;1.90;;
4812;SDS011;2420;51.202;8.698;2022-12-29T15:25:22;4.75;;;1.65;;
4812;SDS011;2420;51.202;8.698;2022-12-29T15:27:52;5.05;;;1.30;;
4812;SDS011;2420;51.202;8.698;2022-12-29T15:30:20;3.72;;;1.45;;
4812;SDS011;2420;51.202;8.698;2022-12-29T15:32:46;2.67;;;1.35;;
4812;SDS011;2420;51.202;8.698;2022-12-29T15:37:59;5.50;;;1.90;;
4812;SDS011;2420;51.202;8.698;2022-12-29T15:40:29;4.18;;;1.77;;
4812;SDS011;2420;51.202;8.698;2022-12-29T15:43:09;6.13;;;1.88;;
4812;SDS011;2420;51.202;8.698;2022-12-29T15:45:48;6.05;;;1.88;;
4812;SDS011;2420;51.202;8.698;2022-12-29T15:48:19;7.28;;;2.15;;
4812;SDS011;2420;51.202;8.698;2022-12-29T15:50:47;4.03;;;1.88;;
4812;SDS011;2420;51.202;8.698;2022-12-29T15:55:52;2.67;;;1.42;;
4812;SDS011;2420;51.202;8.698;2022-12-29T15:58:21;4.00;;;1.70;;
4812;SDS011;2420;51.202;8.698;2022-12-29T16:00:55;2.60;;;1.20;;
4812;SDS011;2420;51.202;8.698;2022-12-29T16:03:24;4.55;;;1.95;;
4812;SDS011;2420;51.202;8.698;2022-12-29T16:05:55;3.55;;;2.08;;
4812;SDS011;2420;51.202;8.698;2022-12-29T16:08:33;7.65;;;2.78;;
4812;SDS011;2420;51.202;8.698;2022-12-29T16:11:02;4.32;;;2.08;;
4812;SDS011;2420;51.202;8.698;2022-12-29T16:13:34;3.95;;;1.60;;
4812;SDS011;2420;51.202;8.698;2022-12-29T16:16:13;8.32;;;4.85;;
4812;SDS011;2420;51.202;8.698;2022-12-29T16:18:43;3.67;;;2.20;;
4812;SDS011;2420;51.202;8.698;2022-12-29T16:21:26;4.30;;;1.80;;
4812;SDS011;2420;51.202;8.698;2022-12-29T16:24:00;6.25;;;2.13;;
4812;SDS011;2420;51.202;8.698;2022-12-29T16:26:30;4.88;;;2.45;;
4812;SDS011;2420;51.202;8.698;2022-12-29T16:28:57;5.50;;;2.30;;
4812;SDS011;2420;51.202;8.698;2022-12-29T16:31:34;6.05;;;2.80;;
4812;SDS011;2420;51.202;8.698;2022-12-29T16:34:12;9.23;;;4.40;;
4812;SDS011;2420;51.202;8.698;2022-12-29T16:36:57;4.25;;;2.90;;
4812;SDS011;2420;51.202;8.698;2022-12-29T16:39:34;5.97;;;2.75;;
4812;SDS011;2420;51.202;8.698;2022-12-29T16:42:32;7.78;;;4.38;;
4812;SDS011;2420;51.202;8.698;2022-12-29T16:48:09;7.68;;;3.10;;
4812;SDS011;2420;51.202;8.698;2022-12-29T16:50:41;5.25;;;2.40;;
4812;SDS011;2420;51.202;8.698;2022-12-29T16:55:49;9.93;;;3.40;;
4812;SDS011;2420;51.202;8.698;2022-12-29T16:58:18;4.38;;;2.33;;
4812;SDS011;2420;51.202;8.698;2022-12-29T17:00:47;6.80;;;3.85;;
4812;SDS011;2420;51.202;8.698;2022-12-29T17:03:13;5.82;;;1.75;;
4812;SDS011;2420;51.202;8.698;2022-12-29T17:05:39;8.75;;;2.60;;
4812;SDS011;2420;51.202;8.698;2022-12-29T17:08:18;8.32;;;5.35;;
4812;SDS011;2420;51.202;8.698;2022-12-29T17:10:54;8.98;;;3.10;;
4812;SDS011;2420;51.202;8.698;2022-12-29T17:13:39;6.13;;;2.88;;
4812;SDS011;2420;51.202;8.698;2022-12-29T17:16:05;15.70;;;6.50;;
4812;SDS011;2420;51.202;8.698;2022-12-29T17:18:32;8.75;;;4.32;;
4812;SDS011;2420;51.202;8.698;2022-12-29T17:20:59;6.57;;;3.08;;
4812;SDS011;2420;51.202;8.698;2022-12-29T17:23:25;8.13;;;3.90;;
4812;SDS011;2420;51.202;8.698;2022-12-29T17:25:50;9.70;;;4.35;;
4812;SDS011;2420;51.202;8.698;2022-12-29T17:28:21;5.30;;;2.83;;
4812;SDS011;2420;51.202;8.698;2022-12-29T17:30:52;7.70;;;3.95;;
4812;SDS011;2420;51.202;8.698;2022-12-29T17:33:20;6.90;;;2.70;;
4812;SDS011;2420;51.202;8.698;2022-12-29T17:35:47;5.65;;;2.88;;
4812;SDS011;2420;51.202;8.698;2022-12-29T17:38:20;3.20;;;2.13;;